Time;durP1;ratioP1;P1;durP2;ratioP2;P2;SDS_P1;SDS_P2;PMS_P1;PMS_P2;Temp;Humidity;BMP_temperature;BMP_pressure;BME280_temperature;BME280_humidity;BME280_pressure;Samples;Min_cycle;Max_cycle;Signal;HPM_P1;HPM_P2
2024/02/04 00:00:06;;;;;;;20.10;14.27;;;;;;;;;;5082121;28;20056;-73
2024/02/04 00:02:33;;;;;;;16.30;12.35;;;;;;;;;;5078117;28;20117;-73
2024/02/04 00:04:59;;;;;;;19.90;12.25;;;;;;;;;;5066240;28;20051;-73
2024/02/04 00:07:26;;;;;;;16.58;11.02;;;;;;;;;;5058226;28;20187;-73
2024/02/04 00:09:53;;;;;;;16.92;12.20;;;;;;;;;;5068732;28;20118;-75
2024/02/04 00:12:20;;;;;;;14.90;10.90;;;;;;;;;;5084667;28;20472;-73
2024/02/04 00:14:46;;;;;;;17.45;12.10;;;;;;;;;;5071911;28;20045;-73
2024/02/04 00:17:14;;;;;;;15.32;10.80;;;;;;;;;;5080671;28;20044;-75
2024/02/04 00:19:41;;;;;;;17.07;12.53;;;;;;;;;;5061914;28;20039;-73
2024/02/04 00:22:07;;;;;;;15.43;11.75;;;;;;;;;;5079849;28;20296;-72
2024/02/04 00:24:34;;;;;;;17.05;11.57;;;;;;;;;;5085191;28;20106;-72
2024/02/04 00:27:00;;;;;;;14.38;11.20;;;;;;;;;;5061421;28;20051;-73
2024/02/04 00:29:27;;;;;;;16.33;11.85;;;;;;;;;;5082050;28;20487;-73
2024/02/04 00:31:53;;;;;;;16.80;10.85;;;;;;;;;;5081499;28;20056;-74
2024/02/04 00:34:20;;;;;;;18.42;12.18;;;;;;;;;;5058080;28;20051;-73
2024/02/04 00:36:47;;;;;;;20.83;12.35;;;;;;;;;;5085886;28;20059;-73
2024/02/04 00:39:13;;;;;;;22.90;14.77;;;;;;;;;;5062422;28;20044;-73
2024/02/04 00:41:40;;;;;;;28.73;15.60;;;;;;;;;;5085224;28;20048;-73
2024/02/04 00:44:06;;;;;;;25.63;14.32;;;;;;;;;;5062879;28;20068;-74
2024/02/04 00:46:32;;;;;;;27.02;14.52;;;;;;;;;;5076955;28;20056;-73
2024/02/04 00:48:59;;;;;;;24.92;14.20;;;;;;;;;;5062232;28;20087;-73
2024/02/04 00:51:26;;;;;;;23.45;14.82;;;;;;;;;;5079850;28;20044;-73
2024/02/04 00:53:53;;;;;;;25.40;14.00;;;;;;;;;;5065673;28;20050;-72
2024/02/04 00:56:19;;;;;;;31.88;15.27;;;;;;;;;;5057593;28;20037;-72
2024/02/04 00:58:45;;;;;;;26.02;15.18;;;;;;;;;;5069626;28;20048;-73
2024/02/04 01:01:12;;;;;;;31.83;15.50;;;;;;;;;;5076094;28;20080;-73
2024/02/04 01:03:39;;;;;;;33.88;15.02;;;;;;;;;;5055915;28;20061;-72
2024/02/04 01:06:05;;;;;;;27.80;14.68;;;;;;;;;;5082992;28;20062;-72
2024/02/04 01:08:31;;;;;;;31.80;15.40;;;;;;;;;;5078647;28;20411;-72
2024/02/04 01:10:58;;;;;;;31.77;15.50;;;;;;;;;;5084769;28;20039;-73
2024/02/04 01:13:24;;;;;;;39.38;16.52;;;;;;;;;;5084827;28;20052;-72
2024/02/04 01:15:50;;;;;;;30.83;15.05;;;;;;;;;;5060159;28;20071;-72
2024/02/04 01:18:17;;;;;;;30.85;14.90;;;;;;;;;;5053084;28;20051;-73
2024/02/04 01:20:43;;;;;;;28.33;15.02;;;;;;;;;;5065295;28;20725;-72
2024/02/04 01:23:10;;;;;;;27.27;14.18;;;;;;;;;;5078619;28;20056;-73
2024/02/04 01:25:36;;;;;;;29.08;14.90;;;;;;;;;;5062550;28;20049;-72
2024/02/04 01:28:08;;;;;;;31.30;14.55;;;;;;;;;;5088551;28;20631;-72
2024/02/04 01:30:34;;;;;;;30.73;15.65;;;;;;;;;;5081472;28;20630;-72
2024/02/04 01:33:00;;;;;;;31.63;14.65;;;;;;;;;;5076918;28;20399;-72
2024/02/04 01:35:27;;;;;;;26.48;13.40;;;;;;;;;;5066875;28;20093;-71
2024/02/04 01:37:54;;;;;;;32.33;14.43;;;;;;;;;;5058632;28;20052;-72
2024/02/04 01:40:20;;;;;;;27.25;13.40;;;;;;;;;;5070274;28;20457;-73
2024/02/04 01:42:46;;;;;;;29.58;14.75;;;;;;;;;;5094842;28;20146;-73
2024/02/04 01:45:13;;;;;;;30.83;14.60;;;;;;;;;;5064887;28;20464;-72
2024/02/04 01:47:39;;;;;;;28.85;13.75;;;;;;;;;;5104491;28;20105;-71
2024/02/04 01:50:06;;;;;;;26.55;13.90;;;;;;;;;;5082716;28;20111;-70
2024/02/04 01:52:33;;;;;;;29.70;13.20;;;;;;;;;;5083684;28;20036;-71
2024/02/04 01:55:01;;;;;;;23.05;12.45;;;;;;;;;;5061300;28;20048;-74
2024/02/04 01:57:27;;;;;;;22.65;13.00;;;;;;;;;;5081471;28;20271;-72
2024/02/04 01:59:56;;;;;;;28.20;13.93;;;;;;;;;;5078731;28;20048;-74
2024/02/04 02:02:22;;;;;;;24.00;11.50;;;;;;;;;;5073496;28;20462;-71
2024/02/04 02:04:49;;;;;;;30.25;11.90;;;;;;;;;;5096134;28;20052;-71
2024/02/04 02:07:18;;;;;;;25.48;12.20;;;;;;;;;;5051486;28;20167;-72
2024/02/04 02:09:44;;;;;;;;;;;;;;;;;;5089364;28;20051;-73
2024/02/04 02:12:14;;;;;;;20.65;11.27;;;;;;;;;;5078180;28;19989;-71
2024/02/04 02:14:50;;;;;;;20.15;11.13;;;;;;;;;;5070181;28;20044;-72
2024/02/04 02:17:19;;;;;;;23.63;10.60;;;;;;;;;;5071132;28;20048;-71
2024/02/04 02:19:49;;;;;;;24.20;11.63;;;;;;;;;;5098725;28;20078;-71
2024/02/04 02:22:28;;;;;;;21.23;10.23;;;;;;;;;;5066652;28;20048;-71
2024/02/04 02:24:56;;;;;;;22.85;10.63;;;;;;;;;;5065568;28;20838;-71
2024/02/04 02:27:23;;;;;;;20.25;9.95;;;;;;;;;;5082504;28;20131;-71
2024/02/04 02:29:49;;;;;;;20.83;10.23;;;;;;;;;;5070722;28;20488;-72
2024/02/04 02:32:16;;;;;;;26.13;10.70;;;;;;;;;;5073934;28;20056;-71
2024/02/04 02:34:42;;;;;;;20.65;10.00;;;;;;;;;;5066723;28;20040;-72
2024/02/04 02:37:14;;;;;;;23.58;10.93;;;;;;;;;;5078714;28;20051;-73
2024/02/04 02:39:45;;;;;;;21.30;9.85;;;;;;;;;;5081915;28;20075;-72
2024/02/04 02:42:11;;;;;;;20.50;10.05;;;;;;;;;;5081203;28;20400;-71
2024/02/04 02:44:38;;;;;;;20.85;9.63;;;;;;;;;;5084627;28;20131;-72
2024/02/04 02:47:06;;;;;;;18.80;9.85;;;;;;;;;;5076499;28;20438;-72
2024/02/04 02:49:32;;;;;;;18.88;10.73;;;;;;;;;;5080696;28;20461;-70
2024/02/04 02:51:59;;;;;;;21.30;10.50;;;;;;;;;;5080148;28;20167;-71
2024/02/04 02:54:25;;;;;;;17.20;9.15;;;;;;;;;;5062207;28;20048;-72
2024/02/04 02:56:52;;;;;;;21.42;11.40;;;;;;;;;;5089522;28;20044;-71
2024/02/04 02:59:18;;;;;;;24.02;10.23;;;;;;;;;;5084061;28;20048;-72
2024/02/04 03:01:45;;;;;;;20.60;11.20;;;;;;;;;;5068898;28;20076;-72
2024/02/04 03:04:11;;;;;;;25.27;11.02;;;;;;;;;;5074071;28;20040;-73
2024/02/04 03:06:38;;;;;;;24.42;10.55;;;;;;;;;;5056953;28;20106;-72
2024/02/04 03:09:05;;;;;;;21.20;11.98;;;;;;;;;;5074363;28;20052;-72
2024/02/04 03:11:31;;;;;;;25.67;12.30;;;;;;;;;;5064628;28;20139;-72
2024/02/04 03:13:57;;;;;;;27.65;12.32;;;;;;;;;;5085863;28;20063;-72
2024/02/04 03:16:24;;;;;;;24.42;12.73;;;;;;;;;;5073150;28;20044;-75
2024/02/04 03:18:51;;;;;;;22.45;12.88;;;;;;;;;;5094315;28;20139;-75
2024/02/04 03:21:18;;;;;;;20.85;12.55;;;;;;;;;;5059979;28;20072;-75
2024/02/04 03:23:44;;;;;;;27.88;15.10;;;;;;;;;;5084824;28;20117;-74
2024/02/04 03:26:11;;;;;;;29.52;15.07;;;;;;;;;;5082236;28;20626;-73
2024/02/04 03:28:38;;;;;;;26.33;15.35;;;;;;;;;;5083864;28;20052;-74
2024/02/04 03:31:04;;;;;;;34.53;17.48;;;;;;;;;;5070542;28;20107;-73
2024/02/04 03:33:30;;;;;;;31.92;17.95;;;;;;;;;;5077882;28;20086;-73
2024/02/04 03:35:57;;;;;;;29.95;17.42;;;;;;;;;;5076655;28;20044;-72
2024/02/04 03:38:23;;;;;;;43.33;19.30;;;;;;;;;;5074830;28;20056;-72
2024/02/04 03:40:50;;;;;;;38.67;20.25;;;;;;;;;;5079748;28;20052;-73
2024/02/04 03:43:16;;;;;;;27.33;17.52;;;;;;;;;;5088167;28;20512;-72
2024/02/04 03:45:43;;;;;;;30.27;16.45;;;;;;;;;;5084926;28;20093;-72
2024/02/04 03:48:09;;;;;;;31.15;15.95;;;;;;;;;;5083700;28;20059;-72
2024/02/04 03:50:36;;;;;;;27.80;14.63;;;;;;;;;;5079706;28;20048;-72
2024/02/04 03:53:03;;;;;;;20.73;13.40;;;;;;;;;;5088262;28;20091;-73
2024/02/04 03:55:29;;;;;;;26.75;13.35;;;;;;;;;;5100526;28;20044;-73
2024/02/04 03:57:58;;;;;;;21.23;11.75;;;;;;;;;;5079816;28;20100;-72
2024/02/04 04:00:25;;;;;;;21.67;11.57;;;;;;;;;;5084149;28;20604;-74
2024/02/04 04:02:52;;;;;;;27.20;10.85;;;;;;;;;;5057112;28;21992;-73
2024/02/04 04:05:18;;;;;;;19.83;10.65;;;;;;;;;;5077052;28;20435;-71
2024/02/04 04:07:45;;;;;;;18.92;10.05;;;;;;;;;;5065096;28;20087;-72
2024/02/04 04:10:11;;;;;;;19.13;9.43;;;;;;;;;;5077802;28;20044;-72
2024/02/04 04:12:38;;;;;;;21.23;10.40;;;;;;;;;;5086186;28;20415;-72
2024/02/04 04:15:05;;;;;;;21.25;9.20;;;;;;;;;;5074415;28;20071;-72
2024/02/04 04:17:31;;;;;;;26.63;10.40;;;;;;;;;;5063233;28;20055;-73
2024/02/04 04:19:58;;;;;;;24.27;10.50;;;;;;;;;;5091979;28;20047;-71
2024/02/04 04:22:24;;;;;;;21.13;11.07;;;;;;;;;;5085099;28;20050;-73
2024/02/04 04:24:51;;;;;;;17.52;10.15;;;;;;;;;;5085318;28;20126;-72
2024/02/04 04:27:17;;;;;;;21.85;10.93;;;;;;;;;;5058467;28;20509;-73
2024/02/04 04:29:44;;;;;;;19.08;10.77;;;;;;;;;;5061696;28;20048;-72
2024/02/04 04:32:10;;;;;;;21.67;10.98;;;;;;;;;;5068122;28;20055;-74
2024/02/04 04:34:37;;;;;;;20.98;10.85;;;;;;;;;;5067263;28;20127;-72
2024/02/04 04:37:03;;;;;;;18.15;10.00;;;;;;;;;;5076413;28;20055;-74
2024/02/04 04:39:30;;;;;;;18.23;10.20;;;;;;;;;;5084358;28;20444;-74
2024/02/04 04:41:56;;;;;;;20.02;9.75;;;;;;;;;;5080072;28;20135;-72
2024/02/04 04:44:22;;;;;;;21.45;10.38;;;;;;;;;;5072036;28;20072;-73
2024/02/04 04:46:49;;;;;;;21.73;11.57;;;;;;;;;;5088863;28;20048;-73
2024/02/04 04:49:15;;;;;;;19.77;10.93;;;;;;;;;;5072796;28;20607;-73
2024/02/04 04:51:46;;;;;;;20.45;11.50;;;;;;;;;;5078486;28;20499;-73
2024/02/04 04:54:12;;;;;;;19.02;10.40;;;;;;;;;;5085713;28;20145;-72
2024/02/04 04:56:39;;;;;;;26.05;11.07;;;;;;;;;;5054069;28;20040;-73
2024/02/04 04:59:12;;;;;;;17.27;10.95;;;;;;;;;;5082346;28;20145;-72
2024/02/04 05:01:44;;;;;;;23.63;11.75;;;;;;;;;;5077645;28;20074;-73
2024/02/04 05:04:11;;;;;;;20.65;11.02;;;;;;;;;;5067661;28;20059;-73
2024/02/04 05:06:38;;;;;;;19.80;11.15;;;;;;;;;;5069211;28;20075;-74
2024/02/04 05:09:04;;;;;;;25.63;11.95;;;;;;;;;;5080443;28;20133;-74
2024/02/04 05:11:31;;;;;;;23.38;12.07;;;;;;;;;;5079827;28;20097;-75
2024/02/04 05:13:57;;;;;;;21.83;12.23;;;;;;;;;;5083385;28;20506;-75
2024/02/04 05:16:24;;;;;;;26.17;12.88;;;;;;;;;;5088743;28;20071;-73
2024/02/04 05:18:50;;;;;;;22.98;11.05;;;;;;;;;;5092593;28;20048;-77
2024/02/04 05:21:17;;;;;;;19.45;10.50;;;;;;;;;;5073976;28;20056;-73
2024/02/04 05:23:43;;;;;;;20.13;10.63;;;;;;;;;;5065758;28;20131;-75
2024/02/04 05:26:10;;;;;;;22.20;11.63;;;;;;;;;;5075619;28;20051;-73
2024/02/04 05:28:36;;;;;;;21.25;9.45;;;;;;;;;;5062669;28;20148;-72
2024/02/04 05:31:03;;;;;;;17.27;9.30;;;;;;;;;;5073515;28;20084;-73
2024/02/04 05:33:29;;;;;;;17.08;9.38;;;;;;;;;;5089099;28;20048;-73
2024/02/04 05:35:56;;;;;;;17.55;9.65;;;;;;;;;;5080404;28;20052;-72
2024/02/04 05:38:22;;;;;;;20.23;10.82;;;;;;;;;;5083461;28;20127;-71
2024/02/04 05:40:49;;;;;;;18.52;9.80;;;;;;;;;;5066113;28;20441;-72
2024/02/04 05:43:16;;;;;;;19.52;9.07;;;;;;;;;;5064879;28;20389;-74
2024/02/04 05:45:42;;;;;;;19.98;9.02;;;;;;;;;;5070089;28;20085;-74
2024/02/04 05:48:09;;;;;;;20.08;8.88;;;;;;;;;;5064737;28;20474;-74
2024/02/04 05:50:36;;;;;;;18.45;9.30;;;;;;;;;;5067529;28;20427;-74
2024/02/04 05:53:02;;;;;;;20.27;10.05;;;;;;;;;;5052677;28;20044;-73
2024/02/04 05:55:29;;;;;;;19.98;9.05;;;;;;;;;;5074389;28;20046;-73
2024/02/04 05:57:55;;;;;;;16.92;10.18;;;;;;;;;;5079302;28;20053;-73
2024/02/04 06:00:23;;;;;;;19.05;9.00;;;;;;;;;;5064355;28;20412;-73
2024/02/04 06:02:49;;;;;;;22.90;8.95;;;;;;;;;;5074721;28;20048;-74
2024/02/04 06:05:15;;;;;;;19.65;9.45;;;;;;;;;;5046120;28;20052;-74
2024/02/04 06:07:42;;;;;;;21.15;10.27;;;;;;;;;;5078011;28;20088;-74
2024/02/04 06:10:09;;;;;;;19.15;9.10;;;;;;;;;;5077122;28;20389;-72
2024/02/04 06:12:37;;;;;;;20.27;9.57;;;;;;;;;;5061537;28;20060;-72
2024/02/04 06:15:04;;;;;;;20.35;10.15;;;;;;;;;;5072455;28;20422;-72
2024/02/04 06:17:30;;;;;;;18.30;9.32;;;;;;;;;;5054604;28;20056;-73
2024/02/04 06:19:59;;;;;;;19.95;9.35;;;;;;;;;;5090520;28;20043;-72
2024/02/04 06:22:26;;;;;;;22.45;10.15;;;;;;;;;;5061468;28;20056;-74
2024/02/04 06:24:52;;;;;;;23.50;10.88;;;;;;;;;;5051321;28;20075;-73
2024/02/04 06:27:19;;;;;;;19.48;11.73;;;;;;;;;;5087962;28;20615;-73
2024/02/04 06:29:45;;;;;;;18.00;9.85;;;;;;;;;;5072674;28;20051;-73
2024/02/04 06:32:13;;;;;;;21.73;12.13;;;;;;;;;;5066430;28;20052;-73
2024/02/04 06:34:39;;;;;;;22.90;11.37;;;;;;;;;;5049382;28;20044;-72
2024/02/04 06:37:06;;;;;;;21.33;12.65;;;;;;;;;;5091333;28;20287;-75
2024/02/04 06:39:32;;;;;;;20.13;12.00;;;;;;;;;;5073653;28;20152;-74
2024/02/04 06:41:59;;;;;;;17.30;10.48;;;;;;;;;;5066166;28;20466;-73
2024/02/04 06:44:25;;;;;;;19.35;12.02;;;;;;;;;;5076392;28;20067;-74
2024/02/04 06:46:51;;;;;;;20.65;13.05;;;;;;;;;;5059131;28;20090;-72
2024/02/04 06:49:18;;;;;;;21.13;13.18;;;;;;;;;;5069819;28;20051;-73
2024/02/04 06:51:45;;;;;;;24.80;13.27;;;;;;;;;;5069984;28;20047;-75
2024/02/04 06:54:12;;;;;;;26.92;15.13;;;;;;;;;;5080323;28;20045;-72
2024/02/04 06:56:38;;;;;;;27.42;16.20;;;;;;;;;;5085579;28;20066;-73
2024/02/04 06:59:05;;;;;;;29.92;17.27;;;;;;;;;;5080890;28;20052;-73
2024/02/04 07:01:32;;;;;;;30.50;16.75;;;;;;;;;;5070243;28;20107;-74
2024/02/04 07:03:58;;;;;;;32.75;16.30;;;;;;;;;;5061193;28;20067;-74
2024/02/04 07:06:25;;;;;;;28.42;17.13;;;;;;;;;;5079714;28;20055;-74
2024/02/04 07:08:52;;;;;;;27.38;15.68;;;;;;;;;;5074919;28;20404;-74
2024/02/04 07:11:18;;;;;;;31.23;17.52;;;;;;;;;;5070608;28;20431;-73
2024/02/04 07:13:44;;;;;;;28.75;16.10;;;;;;;;;;5061760;28;20059;-73
2024/02/04 07:16:11;;;;;;;27.30;15.55;;;;;;;;;;5067120;28;20044;-73
2024/02/04 07:18:37;;;;;;;22.00;13.27;;;;;;;;;;5092425;28;20420;-74
2024/02/04 07:21:04;;;;;;;20.95;12.85;;;;;;;;;;5085264;28;20094;-72
2024/02/04 07:23:31;;;;;;;22.25;13.38;;;;;;;;;;5078227;28;20044;-73
2024/02/04 07:25:57;;;;;;;23.05;12.63;;;;;;;;;;5066294;28;20388;-72
2024/02/04 07:28:24;;;;;;;20.48;11.82;;;;;;;;;;5049980;28;20097;-72
2024/02/04 07:30:50;;;;;;;21.75;12.20;;;;;;;;;;5063890;28;20105;-73
2024/02/04 07:33:16;;;;;;;23.40;12.60;;;;;;;;;;5059839;28;20044;-75
2024/02/04 07:35:43;;;;;;;25.58;12.27;;;;;;;;;;5074150;28;20042;-74
2024/02/04 07:38:09;;;;;;;22.00;12.60;;;;;;;;;;5079232;28;20443;-74
2024/02/04 07:40:36;;;;;;;25.27;11.85;;;;;;;;;;5062926;28;20160;-73
2024/02/04 07:43:03;;;;;;;19.15;10.95;;;;;;;;;;5064980;28;20048;-73
2024/02/04 07:45:29;;;;;;;20.08;10.60;;;;;;;;;;5063051;28;20044;-74
2024/02/04 07:47:56;;;;;;;21.83;10.55;;;;;;;;;;5067150;28;20681;-74
2024/02/04 07:50:22;;;;;;;22.33;11.07;;;;;;;;;;5062259;28;20736;-72
2024/02/04 07:52:49;;;;;;;22.65;11.10;;;;;;;;;;5068771;28;20128;-73
2024/02/04 07:55:15;;;;;;;19.85;9.60;;;;;;;;;;5070070;28;21273;-72
2024/02/04 07:57:42;;;;;;;17.75;9.55;;;;;;;;;;5047654;28;20830;-73
2024/02/04 08:00:11;;;;;;;18.10;8.88;;;;;;;;;;5065231;28;20063;-72
2024/02/04 08:02:38;;;;;;;19.52;8.20;;;;;;;;;;5050778;28;20048;-72
2024/02/04 08:05:05;;;;;;;16.20;8.30;;;;;;;;;;5066636;28;20044;-72
2024/02/04 08:07:32;;;;;;;13.88;8.32;;;;;;;;;;5073396;28;20047;-73
2024/02/04 08:09:58;;;;;;;20.08;7.22;;;;;;;;;;5076723;28;20464;-74
2024/02/04 08:12:25;;;;;;;21.75;8.38;;;;;;;;;;5066865;28;20079;-73
2024/02/04 08:14:51;;;;;;;21.55;8.23;;;;;;;;;;5060153;28;20083;-74
2024/02/04 08:17:17;;;;;;;15.57;8.35;;;;;;;;;;5064460;28;20471;-73
2024/02/04 08:19:44;;;;;;;15.73;7.47;;;;;;;;;;5057605;28;20056;-72
2024/02/04 08:22:10;;;;;;;23.42;8.30;;;;;;;;;;5065298;28;20515;-73
2024/02/04 08:24:37;;;;;;;19.58;8.00;;;;;;;;;;5057399;28;20054;-73
2024/02/04 08:27:03;;;;;;;18.88;7.63;;;;;;;;;;5071478;28;20049;-72
2024/02/04 08:29:30;;;;;;;20.55;7.05;;;;;;;;;;5069004;28;20458;-72
2024/02/04 08:31:56;;;;;;;17.25;7.25;;;;;;;;;;5061944;28;20067;-72
2024/02/04 08:34:24;;;;;;;18.10;6.80;;;;;;;;;;5081244;28;20059;-72
2024/02/04 08:36:50;;;;;;;18.60;7.07;;;;;;;;;;5058372;28;20991;-72
2024/02/04 08:39:17;;;;;;;19.52;6.38;;;;;;;;;;5085759;28;20368;-72
2024/02/04 08:41:43;;;;;;;15.63;6.20;;;;;;;;;;5064888;28;20040;-73
2024/02/04 08:44:10;;;;;;;18.70;7.10;;;;;;;;;;5079828;28;20066;-73
2024/02/04 08:46:48;;;;;;;16.60;6.40;;;;;;;;;;5084529;28;20095;-73
2024/02/04 08:49:14;;;;;;;15.57;5.95;;;;;;;;;;5067312;28;20056;-72
2024/02/04 08:51:41;;;;;;;15.48;6.47;;;;;;;;;;5084108;28;20052;-73
2024/02/04 08:54:08;;;;;;;21.75;6.90;;;;;;;;;;5052235;28;20726;-73
2024/02/04 08:56:34;;;;;;;15.20;5.18;;;;;;;;;;5066369;28;20044;-72
2024/02/04 08:59:02;;;;;;;18.42;5.38;;;;;;;;;;5096516;28;20648;-73
2024/02/04 09:01:28;;;;;;;10.60;4.97;;;;;;;;;;5060793;28;20044;-75
2024/02/04 09:03:55;;;;;;;10.02;4.95;;;;;;;;;;5080490;28;20070;-73
2024/02/04 09:06:21;;;;;;;10.93;4.97;;;;;;;;;;5074110;28;20121;-73
2024/02/04 09:08:48;;;;;;;8.85;4.55;;;;;;;;;;5050867;28;20402;-74
2024/02/04 09:11:18;;;;;;;11.63;4.70;;;;;;;;;;5062131;28;20098;-74
2024/02/04 09:13:45;;;;;;;8.35;4.32;;;;;;;;;;5083607;28;20078;-73
2024/02/04 09:16:11;;;;;;;10.95;4.80;;;;;;;;;;5081019;28;20075;-72
2024/02/04 09:18:38;;;;;;;14.15;5.25;;;;;;;;;;5054850;28;20699;-73
2024/02/04 09:21:06;;;;;;;9.15;4.88;;;;;;;;;;5083526;28;20047;-72
2024/02/04 09:23:33;;;;;;;12.65;5.22;;;;;;;;;;5070679;28;20119;-73
2024/02/04 09:25:59;;;;;;;12.15;5.22;;;;;;;;;;5080526;28;20055;-74
2024/02/04 09:28:26;;;;;;;10.98;5.63;;;;;;;;;;5064690;28;20094;-75
2024/02/04 09:30:52;;;;;;;11.63;6.10;;;;;;;;;;5076066;28;20066;-73
2024/02/04 09:33:19;;;;;;;11.38;5.57;;;;;;;;;;5091188;28;20071;-74
2024/02/04 09:35:47;;;;;;;18.15;6.47;;;;;;;;;;5093123;28;20051;-75
2024/02/04 09:38:15;;;;;;;10.65;6.25;;;;;;;;;;5066542;28;20493;-73
2024/02/04 09:40:42;;;;;;;12.18;6.05;;;;;;;;;;5060297;28;20048;-73
2024/02/04 09:43:09;;;;;;;16.50;5.90;;;;;;;;;;5084757;28;20056;-72
2024/02/04 09:45:36;;;;;;;14.18;6.03;;;;;;;;;;5062450;28;20125;-73
2024/02/04 09:48:03;;;;;;;18.48;5.80;;;;;;;;;;5052693;28;20055;-73
2024/02/04 09:50:29;;;;;;;13.80;6.07;;;;;;;;;;5083255;28;20145;-73
2024/02/04 09:52:58;;;;;;;9.02;5.05;;;;;;;;;;5060958;28;20056;-74
2024/02/04 09:55:26;;;;;;;10.77;4.93;;;;;;;;;;5066219;28;20054;-72
2024/02/04 09:57:53;;;;;;;10.27;4.97;;;;;;;;;;5062283;28;20060;-75
2024/02/04 10:00:22;;;;;;;7.25;4.22;;;;;;;;;;5061465;28;20101;-73
2024/02/04 10:02:49;;;;;;;11.80;4.80;;;;;;;;;;5069264;28;20070;-73
2024/02/04 10:05:16;;;;;;;8.98;4.70;;;;;;;;;;5078893;28;20044;-74
2024/02/04 10:07:43;;;;;;;9.23;4.60;;;;;;;;;;5087639;28;20048;-75
2024/02/04 10:10:10;;;;;;;9.57;4.20;;;;;;;;;;5083112;28;20102;-72
2024/02/04 10:12:38;;;;;;;12.00;4.80;;;;;;;;;;5062523;28;20131;-73
2024/02/04 10:15:05;;;;;;;8.68;3.88;;;;;;;;;;5083930;28;20043;-74
2024/02/04 10:17:33;;;;;;;10.10;4.53;;;;;;;;;;5081092;28;20136;-72
2024/02/04 10:20:00;;;;;;;11.93;4.72;;;;;;;;;;5084769;28;20047;-74
2024/02/04 10:22:28;;;;;;;7.72;3.90;;;;;;;;;;5081139;28;20055;-72
2024/02/04 10:25:04;;;;;;;6.15;3.75;;;;;;;;;;5069473;28;20055;-72
2024/02/04 10:27:31;;;;;;;9.98;3.90;;;;;;;;;;5077711;28;20052;-74
2024/02/04 10:30:03;;;;;;;10.90;4.25;;;;;;;;;;5076471;28;20048;-73
2024/02/04 10:32:30;;;;;;;9.27;3.78;;;;;;;;;;5087226;28;20051;-76
2024/02/04 10:34:57;;;;;;;7.90;3.45;;;;;;;;;;5063643;28;20594;-76
2024/02/04 10:37:24;;;;;;;5.80;3.10;;;;;;;;;;5069049;28;20480;-73
2024/02/04 10:39:55;;;;;;;4.85;3.25;;;;;;;;;;5076130;28;20048;-72
2024/02/04 10:42:24;;;;;;;7.70;3.55;;;;;;;;;;5083293;28;20051;-75
2024/02/04 10:44:51;;;;;;;8.85;3.25;;;;;;;;;;5080552;28;20052;-75
2024/02/04 10:47:21;;;;;;;7.65;3.38;;;;;;;;;;5083336;28;20140;-76
2024/02/04 10:49:50;;;;;;;9.55;3.00;;;;;;;;;;5080662;28;20052;-73
2024/02/04 10:52:17;;;;;;;7.63;3.00;;;;;;;;;;5080720;28;20059;-74
2024/02/04 10:54:44;;;;;;;7.88;3.00;;;;;;;;;;5083332;28;20048;-73
2024/02/04 10:57:12;;;;;;;7.22;2.60;;;;;;;;;;5092656;28;20059;-74
2024/02/04 10:59:39;;;;;;;6.95;2.60;;;;;;;;;;5088136;28;20056;-74
2024/02/04 11:02:06;;;;;;;8.25;2.92;;;;;;;;;;5067201;28;20101;-75
2024/02/04 11:04:34;;;;;;;4.60;2.80;;;;;;;;;;5081890;28;20044;-73
2024/02/04 11:07:01;;;;;;;10.25;2.53;;;;;;;;;;5085604;28;20122;-75
2024/02/04 11:09:28;;;;;;;5.28;2.40;;;;;;;;;;5077949;28;20652;-75
2024/02/04 11:11:56;;;;;;;6.00;2.00;;;;;;;;;;5064275;28;20755;-74
2024/02/04 11:14:23;;;;;;;4.55;1.95;;;;;;;;;;5074283;28;20054;-75
2024/02/04 11:16:55;;;;;;;6.28;1.63;;;;;;;;;;5084666;28;20105;-72
2024/02/04 11:19:34;;;;;;;8.50;2.00;;;;;;;;;;5098812;28;20096;-73
2024/02/04 11:22:20;;;;;;;3.63;1.73;;;;;;;;;;5067927;28;20048;-77
2024/02/04 11:25:05;;;;;;;3.13;1.35;;;;;;;;;;5083283;28;20048;-74
2024/02/04 11:27:31;;;;;;;7.15;1.70;;;;;;;;;;5062266;28;20517;-75
2024/02/04 11:29:58;;;;;;;5.20;1.67;;;;;;;;;;5080232;28;20150;-76
2024/02/04 11:32:25;;;;;;;3.63;1.35;;;;;;;;;;5081036;28;20052;-75
2024/02/04 11:34:54;;;;;;;3.60;1.60;;;;;;;;;;5065673;28;20046;-76
2024/02/04 11:37:23;;;;;;;4.28;1.60;;;;;;;;;;5078009;28;20051;-75
2024/02/04 11:39:55;;;;;;;4.30;1.33;;;;;;;;;;5073671;28;20053;-76
2024/02/04 11:42:25;;;;;;;2.42;1.33;;;;;;;;;;5068466;28;20518;-76
2024/02/04 11:45:07;;;;;;;4.03;1.40;;;;;;;;;;5072542;28;20480;-75
2024/02/04 11:47:33;;;;;;;3.10;1.20;;;;;;;;;;5084649;28;20051;-74
2024/02/04 11:50:00;;;;;;;1.85;1.20;;;;;;;;;;5075638;28;20068;-76
2024/02/04 11:52:27;;;;;;;2.72;1.33;;;;;;;;;;5063052;28;20074;-75
2024/02/04 11:54:54;;;;;;;1.75;1.35;;;;;;;;;;5080224;28;20079;-75
2024/02/04 11:57:22;;;;;;;4.95;1.75;;;;;;;;;;5088379;28;20518;-76
2024/02/04 11:59:50;;;;;;;2.50;1.70;;;;;;;;;;5065416;28;20059;-75
2024/02/04 12:02:17;;;;;;;5.18;1.80;;;;;;;;;;5062934;28;20052;-76
2024/02/04 12:04:44;;;;;;;5.53;2.00;;;;;;;;;;5062391;28;20048;-75
2024/02/04 12:07:12;;;;;;;3.15;2.30;;;;;;;;;;5082036;28;20109;-75
2024/02/04 12:09:38;;;;;;;4.90;2.30;;;;;;;;;;5087429;28;20139;-75
2024/02/04 12:12:05;;;;;;;5.47;2.47;;;;;;;;;;5065059;28;20072;-75
2024/02/04 12:14:34;;;;;;;4.30;2.30;;;;;;;;;;5087103;28;20063;-76
2024/02/04 12:17:08;;;;;;;5.63;2.80;;;;;;;;;;5084464;28;20036;-75
2024/02/04 12:19:35;;;;;;;5.70;2.83;;;;;;;;;;5080065;28;20040;-77
2024/02/04 12:22:09;;;;;;;8.05;3.17;;;;;;;;;;5088730;28;20056;-79
2024/02/04 12:24:36;;;;;;;7.53;3.28;;;;;;;;;;5084840;28;20062;-76
2024/02/04 12:27:07;;;;;;;5.35;3.13;;;;;;;;;;5071428;28;20055;-79
2024/02/04 12:29:34;;;;;;;8.13;3.70;;;;;;;;;;5082747;28;20056;-79
2024/02/04 12:32:03;;;;;;;5.65;3.03;;;;;;;;;;5085137;28;20074;-77
2024/02/04 12:34:33;;;;;;;9.77;4.10;;;;;;;;;;5109058;28;20091;-79
2024/02/04 12:37:01;;;;;;;8.02;3.78;;;;;;;;;;5097086;28;20055;-78
2024/02/04 12:39:32;;;;;;;10.70;4.30;;;;;;;;;;5099107;28;20117;-79
2024/02/04 12:42:00;;;;;;;13.95;4.60;;;;;;;;;;5083687;28;20067;-79
2024/02/04 12:44:27;;;;;;;8.23;4.35;;;;;;;;;;5087045;28;20062;-79
2024/02/04 12:46:53;;;;;;;13.05;4.38;;;;;;;;;;5080672;28;20060;-80
2024/02/04 12:49:21;;;;;;;15.98;4.63;;;;;;;;;;5054779;28;20087;-78
2024/02/04 12:51:49;;;;;;;11.07;3.95;;;;;;;;;;5090100;28;20075;-78
2024/02/04 12:54:18;;;;;;;14.40;4.63;;;;;;;;;;5079985;28;20053;-79
2024/02/04 12:56:48;;;;;;;14.40;4.75;;;;;;;;;;5085838;28;20058;-80
2024/02/04 12:59:28;;;;;;;10.27;4.72;;;;;;;;;;5064068;28;20058;-79
2024/02/04 13:01:55;;;;;;;13.60;4.82;;;;;;;;;;5086803;28;20860;-79
2024/02/04 13:04:22;;;;;;;9.77;4.82;;;;;;;;;;5087266;28;20707;-79
2024/02/04 13:06:49;;;;;;;13.60;4.30;;;;;;;;;;5086221;28;20056;-81
2024/02/04 13:09:16;;;;;;;13.27;4.40;;;;;;;;;;5091292;28;20052;-80
2024/02/04 13:11:43;;;;;;;19.08;5.13;;;;;;;;;;5068600;28;20084;-80
2024/02/04 13:14:11;;;;;;;13.00;4.45;;;;;;;;;;5065978;28;20112;-80
2024/02/04 13:16:38;;;;;;;11.98;4.10;;;;;;;;;;5082890;28;20108;-80
2024/02/04 13:19:05;;;;;;;11.43;4.57;;;;;;;;;;5071095;28;20043;-80
2024/02/04 13:21:32;;;;;;;16.17;4.75;;;;;;;;;;5085314;28;20112;-78
2024/02/04 13:23:58;;;;;;;9.80;3.80;;;;;;;;;;5076261;28;20055;-80
2024/02/04 13:26:24;;;;;;;12.82;5.07;;;;;;;;;;5066231;28;20435;-81
2024/02/04 13:28:51;;;;;;;11.48;4.18;;;;;;;;;;5055502;28;20059;-79
2024/02/04 13:31:18;;;;;;;11.65;4.47;;;;;;;;;;5079544;28;20040;-79
2024/02/04 13:33:45;;;;;;;8.75;4.10;;;;;;;;;;5070750;28;20599;-78
2024/02/04 13:36:11;;;;;;;11.30;5.00;;;;;;;;;;5085719;28;20061;-79
2024/02/04 13:38:38;;;;;;;8.35;4.35;;;;;;;;;;5067637;28;20053;-80
2024/02/04 13:41:07;;;;;;;13.05;4.57;;;;;;;;;;5076464;28;20044;-79
2024/02/04 13:43:33;;;;;;;13.07;5.10;;;;;;;;;;5070838;28;20707;-79
2024/02/04 13:46:00;;;;;;;12.57;5.90;;;;;;;;;;5080422;28;20405;-79
2024/02/04 13:48:27;;;;;;;15.57;5.68;;;;;;;;;;5073011;28;20062;-80
2024/02/04 13:50:56;;;;;;;16.30;5.60;;;;;;;;;;5079113;28;20094;-80
2024/02/04 13:53:23;;;;;;;13.70;5.53;;;;;;;;;;5073588;28;20135;-79
2024/02/04 13:55:49;;;;;;;12.13;5.10;;;;;;;;;;5070648;28;20048;-77
2024/02/04 13:58:18;;;;;;;13.70;5.63;;;;;;;;;;5068072;28;20576;-79
2024/02/04 14:00:45;;;;;;;16.73;5.57;;;;;;;;;;5073687;28;20044;-79
2024/02/04 14:03:15;;;;;;;13.43;5.13;;;;;;;;;;5070661;28;20681;-79
2024/02/04 14:05:41;;;;;;;12.55;4.53;;;;;;;;;;5074235;28;20055;-77
2024/02/04 14:08:09;;;;;;;13.25;4.53;;;;;;;;;;5067916;28;20511;-77
2024/02/04 14:10:36;;;;;;;12.75;4.32;;;;;;;;;;5082025;28;20130;-77
2024/02/04 14:13:04;;;;;;;12.25;4.07;;;;;;;;;;5060686;28;20044;-78
2024/02/04 14:15:36;;;;;;;16.92;4.45;;;;;;;;;;5070957;28;20055;-77
2024/02/04 14:18:02;;;;;;;14.00;4.88;;;;;;;;;;5082603;28;20039;-78
2024/02/04 14:20:29;;;;;;;8.43;3.83;;;;;;;;;;5091851;28;20488;-78
2024/02/04 14:22:56;;;;;;;13.80;4.45;;;;;;;;;;5054793;28;20760;-78
2024/02/04 14:25:24;;;;;;;14.15;4.63;;;;;;;;;;5070928;28;20055;-76